| time (UTC) | temp C | wind direction | speed KPH | gust KPH | rain 1hr cm | rain 24hr cm | rain mn cm | humidity % | barometer mb |
| 20260906231018 | 23 | 182 | 8.0 | 14.5 | 0.00 | 0.00 | 0.00 | 51 | 1013.8 |
| 20260906230018 | 23 | 177 | 8.0 | 17.7 | 0.00 | 0.00 | 0.00 | 52 | 1013.8 |
| 20260906225038 | 23 | 178 | 6.4 | 12.9 | 0.00 | 0.00 | 0.00 | 53 | 1013.9 |
| 20260906224018 | 23 | 177 | 8.0 | 17.7 | 0.00 | 0.00 | 0.00 | 53 | 1014.0 |
| 20260906223017 | 23 | 170 | 8.0 | 14.5 | 0.00 | 0.00 | 0.00 | 53 | 1014.1 |
| 20260906222015 | 23 | 213 | 6.4 | 14.5 | 0.00 | 0.00 | 0.00 | 51 | 1014.1 |
| 20260906221015 | 23 | 208 | 3.2 | 11.3 | 0.00 | 0.00 | 0.00 | 50 | 1014.1 |
| 20260906220016 | 23 | 207 | 6.4 | 14.5 | 0.00 | 0.00 | 0.00 | 48 | 1014.2 |
| 20260906215016 | 23 | 185 | 4.8 | 11.3 | 0.00 | 0.00 | 0.00 | 50 | 1014.3 |
| 20260906214016 | 22 | 185 | 6.4 | 11.3 | 0.00 | 0.00 | 0.00 | 52 | 1014.4 |
| 20260906213017 | 22 | 198 | 8.0 | 16.1 | 0.00 | 0.00 | 0.00 | 54 | 1014.5 |
| 20260906212016 | 22 | 176 | 9.7 | 17.7 | 0.00 | 0.00 | 0.00 | 55 | 1014.5 |
| 20260906211016 | 22 | 184 | 6.4 | 14.5 | 0.00 | 0.00 | 0.00 | 55 | 1014.6 |
| 20260906210016 | 22 | 182 | 8.0 | 14.5 | 0.00 | 0.00 | 0.00 | 55 | 1014.6 |
| 20260906205037 | 21 | 185 | 9.7 | 16.1 | 0.00 | 0.00 | 0.00 | 56 | 1014.8 |
| 20260906204017 | 21 | 166 | 8.0 | 14.5 | 0.00 | 0.00 | 0.00 | 56 | 1014.9 |
| 20260906203037 | 21 | 185 | 8.0 | 14.5 | 0.00 | 0.00 | 0.00 | 56 | 1015.0 |
| 20260906202017 | 21 | 184 | 8.0 | 17.7 | 0.00 | 0.00 | 0.00 | 57 | 1015.0 |
| 20260906201038 | 21 | 177 | 9.7 | 19.3 | 0.00 | 0.00 | 0.00 | 56 | 1015.1 |
| 20260906200018 | 21 | 190 | 8.0 | 14.5 | 0.00 | 0.00 | 0.00 | 57 | 1015.2 |
| 20260906195018 | 21 | 176 | 8.0 | 16.1 | 0.00 | 0.00 | 0.00 | 57 | 1015.4 |
| 20260906194018 | 21 | 185 | 6.4 | 14.5 | 0.00 | 0.00 | 0.00 | 58 | 1015.5 |
| 20260906193018 | 21 | 170 | 6.4 | 17.7 | 0.00 | 0.00 | 0.00 | 56 | 1015.6 |
| 20260906192038 | 20 | 171 | 3.2 | 16.1 | 0.00 | 0.00 | 0.00 | 58 | 1015.7 |
| 20260906191015 | 20 | 183 | 8.0 | 12.9 | 0.00 | 0.00 | 0.00 | 59 | 1015.9 |
| 20260906190016 | 20 | 119 | 3.2 | 9.7 | 0.00 | 0.00 | 0.00 | 57 | 1016.0 |
| 20260906185016 | 20 | 182 | 8.0 | 14.5 | 0.00 | 0.00 | 0.00 | 58 | 1016.2 |
| 20260906184037 | 19 | 192 | 6.4 | 12.9 | 0.00 | 0.00 | 0.00 | 60 | 1016.2 |
| 20260906183016 | 19 | 186 | 6.4 | 14.5 | 0.00 | 0.00 | 0.00 | 61 | 1016.3 |
| 20260906182017 | 19 | 187 | 6.4 | 12.9 | 0.00 | 0.00 | 0.00 | 62 | 1016.4 |
| 20260906181017 | 18 | 190 | 6.4 | 12.9 | 0.00 | 0.00 | 0.00 | 64 | 1016.4 |
| 20260906180017 | 18 | 166 | 4.8 | 11.3 | 0.00 | 0.00 | 0.00 | 66 | 1016.5 |
| 20260906175017 | 18 | 163 | 3.2 | 11.3 | 0.00 | 0.00 | 0.00 | 65 | 1016.6 |
| 20260906174017 | 17 | 122 | 3.2 | 9.7 | 0.00 | 0.00 | 0.00 | 69 | 1016.6 |
| 20260906173017 | 17 | 195 | 6.4 | 12.9 | 0.00 | 0.00 | 0.00 | 69 | 1016.7 |
| 20260906172017 | 17 | 176 | 3.2 | 8.0 | 0.00 | 0.00 | 0.00 | 71 | 1016.9 |
| 20260906171017 | 17 | 148 | 3.2 | 8.0 | 0.00 | 0.00 | 0.00 | 70 | 1016.9 |
| 20260906170018 | 17 | 179 | 4.8 | 11.3 | 0.00 | 0.00 | 0.00 | 70 | 1017.0 |
| 20260906165015 | 17 | 197 | 4.8 | 9.7 | 0.00 | 0.00 | 0.00 | 72 | 1017.1 |
| 20260906164058 | 17 | 117 | 0.0 | 4.8 | 0.00 | 0.00 | 0.00 | 72 | 1017.2 |
| 20260906163018 | 16 | 114 | 0.0 | 3.2 | 0.00 | 0.00 | 0.00 | 74 | 1017.3 |
| 20260906162015 | 16 | 182 | 0.0 | 3.2 | 0.00 | 0.00 | 0.00 | 74 | 1017.3 |
| 20260906161036 | 16 | 152 | 1.6 | 6.4 | 0.00 | 0.00 | 0.00 | 76 | 1017.3 |
| 20260906160036 | 15 | 130 | 1.6 | 6.4 | 0.00 | 0.00 | 0.00 | 77 | 1017.4 |
| 20260906155016 | 15 | 308 | 1.6 | 3.2 | 0.00 | 0.00 | 0.00 | 80 | 1017.4 |
| 20260906154016 | 15 | 146 | 1.6 | 4.8 | 0.00 | 0.00 | 0.00 | 79 | 1017.4 |
| 20260906153016 | 15 | 302 | 0.0 | 3.2 | 0.00 | 0.00 | 0.00 | 80 | 1017.5 |
| 20260906152017 | 15 | 0.0 | 0.0 | 0.00 | 0.00 | 0.00 | 80 | 1017.4 | |
| 20260906151037 | 13 | 0.0 | 0.0 | 0.00 | 0.00 | 0.00 | 82 | 1017.4 | |
| 20260906150017 | 13 | 297 | 0.0 | 3.2 | 0.00 | 0.00 | 0.00 | 88 | 1017.4 |
| 20260906145027 | 12 | 0.0 | 0.0 | 0.00 | 0.00 | 0.00 | 92 | 1017.4 | |
| 20260906144028 | 11 | 0.0 | 0.0 | 0.00 | 0.00 | 0.00 | 93 | 1017.3 | |
| 20260906143028 | 11 | 0.0 | 0.0 | 0.00 | 0.00 | 0.00 | 94 | 1017.3 | |
| 20260906142028 | 11 | 0.0 | 0.0 | 0.00 | 0.00 | 0.00 | 94 | 1017.2 | |
| 20260906141029 | 11 | 0.0 | 0.0 | 0.00 | 0.00 | 0.00 | 94 | 1017.2 | |
| 20260906140028 | 11 | 0.0 | 0.0 | 0.00 | 0.00 | 0.00 | 93 | 1017.1 | |
| 20260906135029 | 11 | 0.0 | 0.0 | 0.00 | 0.00 | 0.00 | 93 | 1017.1 | |
| 20260906134029 | 11 | 0.0 | 0.0 | 0.00 | 0.00 | 0.00 | 93 | 1017.0 | |
| 20260906133015 | 11 | 0.0 | 0.0 | 0.00 | 0.00 | 0.00 | 92 | 1017.0 | |
| 20260906132016 | 12 | 0.0 | 0.0 | 0.00 | 0.00 | 0.00 | 92 | 1017.0 | |
| 20260906131015 | 12 | 0.0 | 0.0 | 0.00 | 0.00 | 0.00 | 92 | 1017.0 | |
| 20260906130016 | 12 | 0.0 | 0.0 | 0.00 | 0.00 | 0.00 | 92 | 1017.1 | |
| 20260906125016 | 11 | 0.0 | 0.0 | 0.00 | 0.00 | 0.00 | 92 | 1017.1 | |
| 20260906124016 | 12 | 294 | 0.0 | 1.6 | 0.00 | 0.00 | 0.00 | 91 | 1017.2 |
| 20260906123036 | 12 | 0.0 | 0.0 | 0.00 | 0.00 | 0.00 | 90 | 1017.2 | |
| 20260906122016 | 12 | 248 | 0.0 | 0.0 | 0.00 | 0.00 | 0.00 | 90 | 1017.2 |
| 20260906121016 | 12 | 245 | 1.6 | 3.2 | 0.00 | 0.00 | 0.00 | 90 | 1017.2 |
| 20260906120017 | 12 | 0.0 | 0.0 | 0.00 | 0.00 | 0.00 | 89 | 1017.2 | |
| 20260906115017 | 12 | 0.0 | 0.0 | 0.00 | 0.00 | 0.00 | 88 | 1017.2 | |
| 20260906114038 | 12 | 0.0 | 0.0 | 0.00 | 0.00 | 0.00 | 87 | 1017.1 | |
| 20260906113017 | 12 | 280 | 0.0 | 1.6 | 0.00 | 0.00 | 0.00 | 87 | 1017.1 |
| 20260906112018 | 12 | 236 | 1.6 | 3.2 | 0.00 | 0.00 | 0.00 | 86 | 1017.1 |
| 20260906111038 | 12 | 246 | 1.6 | 3.2 | 0.00 | 0.00 | 0.00 | 85 | 1017.1 |
| 20260906110018 | 12 | 249 | 1.6 | 3.2 | 0.00 | 0.00 | 0.00 | 85 | 1017.1 |
| 20260906105018 | 12 | 238 | 1.6 | 3.2 | 0.00 | 0.00 | 0.00 | 87 | 1017.0 |
| 20260906104018 | 12 | 285 | 1.6 | 1.6 | 0.00 | 0.00 | 0.00 | 88 | 1017.1 |
| 20260906103018 | 12 | 247 | 0.0 | 3.2 | 0.00 | 0.00 | 0.00 | 88 | 1017.0 |
| 20260906102018 | 12 | 0.0 | 0.0 | 0.00 | 0.00 | 0.00 | 88 | 1017.1 | |
| 20260906101019 | 12 | 243 | 0.0 | 1.6 | 0.00 | 0.00 | 0.00 | 87 | 1017.2 |
| 20260906100019 | 12 | 245 | 1.6 | 3.2 | 0.00 | 0.00 | 0.00 | 86 | 1017.1 |
| 20260906095019 | 13 | 0.0 | 0.0 | 0.00 | 0.00 | 0.00 | 85 | 1017.1 | |
| 20260906094020 | 13 | 261 | 3.2 | 3.2 | 0.00 | 0.00 | 0.00 | 85 | 1017.1 |
| 20260906093020 | 12 | 265 | 1.6 | 3.2 | 0.00 | 0.00 | 0.00 | 86 | 1017.2 |
| 20260906092020 | 13 | 0.0 | 0.0 | 0.00 | 0.00 | 0.00 | 86 | 1017.3 | |
| 20260906091020 | 13 | 0.0 | 0.0 | 0.00 | 0.00 | 0.00 | 85 | 1017.3 | |
| 20260906090020 | 13 | 0.0 | 0.0 | 0.00 | 0.00 | 0.00 | 84 | 1017.3 | |
| 20260906085021 | 13 | 0.0 | 0.0 | 0.00 | 0.00 | 0.00 | 83 | 1017.3 | |
| 20260906084020 | 14 | 0.0 | 0.0 | 0.00 | 0.00 | 0.00 | 81 | 1017.4 | |
| 20260906083021 | 14 | 292 | 1.6 | 3.2 | 0.00 | 0.00 | 0.00 | 80 | 1017.5 |
| 20260906082021 | 15 | 336 | 1.6 | 4.8 | 0.00 | 0.00 | 0.00 | 79 | 1017.5 |
| 20260906081021 | 15 | 324 | 1.6 | 4.8 | 0.00 | 0.00 | 0.00 | 79 | 1017.5 |
| 20260906080021 | 15 | 315 | 1.6 | 4.8 | 0.00 | 0.00 | 0.00 | 80 | 1017.5 |
| 20260906075021 | 15 | 318 | 3.2 | 3.2 | 0.00 | 0.00 | 0.00 | 79 | 1017.5 |
| 20260906074022 | 15 | 319 | 3.2 | 4.8 | 0.00 | 0.00 | 0.00 | 78 | 1017.5 |
| 20260906073022 | 15 | 327 | 0.0 | 3.2 | 0.00 | 0.00 | 0.00 | 78 | 1017.5 |
| 20260906072022 | 15 | 323 | 1.6 | 4.8 | 0.00 | 0.00 | 0.00 | 78 | 1017.6 |
| 20260906071023 | 15 | 318 | 3.2 | 4.8 | 0.00 | 0.00 | 0.00 | 78 | 1017.7 |
| 20260906070023 | 15 | 337 | 3.2 | 6.4 | 0.00 | 0.00 | 0.00 | 78 | 1017.8 |
| 20260906065024 | 15 | 317 | 1.6 | 3.2 | 0.00 | 0.00 | 0.00 | 79 | 1017.8 |
| 20260906064023 | 14 | 332 | 3.2 | 8.0 | 0.00 | 0.00 | 0.00 | 80 | 1017.8 |
| 20260906063024 | 14 | 322 | 3.2 | 4.8 | 0.00 | 0.00 | 0.00 | 81 | 1017.8 |
| 20260906062024 | 14 | 318 | 3.2 | 4.8 | 0.00 | 0.00 | 0.00 | 82 | 1017.7 |
| 20260906061024 | 14 | 287 | 0.0 | 1.6 | 0.00 | 0.00 | 0.00 | 81 | 1017.7 |
| 20260906060024 | 15 | 0.0 | 0.0 | 0.00 | 0.00 | 0.00 | 80 | 1017.5 | |
| 20260906055024 | 15 | 285 | 1.6 | 3.2 | 0.00 | 0.00 | 0.00 | 78 | 1017.4 |
| 20260906054024 | 16 | 0.0 | 0.0 | 0.00 | 0.00 | 0.00 | 76 | 1017.4 | |
| 20260906053024 | 16 | 277 | 0.0 | 1.6 | 0.00 | 0.00 | 0.00 | 74 | 1017.4 |
| 20260906052016 | 16 | 279 | 1.6 | 3.2 | 0.00 | 0.00 | 0.00 | 74 | 1017.5 |
| 20260906051017 | 16 | 314 | 3.2 | 6.4 | 0.00 | 0.00 | 0.00 | 73 | 1017.6 |
| 20260906050017 | 16 | 316 | 0.0 | 3.2 | 0.00 | 0.00 | 0.00 | 74 | 1017.7 |
| 20260906045016 | 16 | 323 | 3.2 | 6.4 | 0.00 | 0.00 | 0.00 | 73 | 1017.7 |
| 20260906044017 | 16 | 294 | 0.0 | 3.2 | 0.00 | 0.00 | 0.00 | 70 | 1017.8 |
| 20260906043017 | 16 | 304 | 1.6 | 4.8 | 0.00 | 0.00 | 0.00 | 67 | 1017.8 |
| 20260906042018 | 16 | 299 | 1.6 | 3.2 | 0.00 | 0.00 | 0.00 | 69 | 1017.8 |
| 20260906041018 | 16 | 300 | 0.0 | 1.6 | 0.00 | 0.00 | 0.00 | 66 | 1017.8 |
| 20260906040017 | 17 | 0.0 | 0.0 | 0.00 | 0.00 | 0.00 | 64 | 1017.7 | |
| 20260906035018 | 17 | 273 | 1.6 | 4.8 | 0.00 | 0.00 | 0.00 | 63 | 1017.7 |
| 20260906034018 | 17 | 279 | 1.6 | 4.8 | 0.00 | 0.00 | 0.00 | 65 | 1017.7 |
| 20260906033038 | 17 | 295 | 0.0 | 1.6 | 0.00 | 0.00 | 0.00 | 63 | 1017.6 |
| 20260906032018 | 17 | 0.0 | 0.0 | 0.00 | 0.00 | 0.00 | 62 | 1017.4 | |
| 20260906031018 | 18 | 300 | 0.0 | 1.6 | 0.00 | 0.00 | 0.00 | 59 | 1017.3 |
| 20260906030018 | 18 | 0.0 | 0.0 | 0.00 | 0.00 | 0.00 | 56 | 1017.3 | |
| 20260906025019 | 18 | 207 | 1.6 | 8.0 | 0.00 | 0.00 | 0.00 | 54 | 1017.2 |
| 20260906024016 | 19 | 205 | 1.6 | 4.8 | 0.00 | 0.00 | 0.00 | 54 | 1017.2 |
| 20260906023017 | 19 | 200 | 3.2 | 6.4 | 0.00 | 0.00 | 0.00 | 54 | 1017.3 |
| 20260906022036 | 20 | 200 | 4.8 | 9.7 | 0.00 | 0.00 | 0.00 | 52 | 1017.2 |
| 20260906021016 | 20 | 208 | 4.8 | 9.7 | 0.00 | 0.00 | 0.00 | 52 | 1017.2 |
| 20260906020016 | 20 | 203 | 6.4 | 9.7 | 0.00 | 0.00 | 0.00 | 50 | 1017.2 |
| 20260906015017 | 20 | 204 | 4.8 | 8.0 | 0.00 | 0.00 | 0.00 | 51 | 1017.1 |
| 20260906014018 | 20 | 195 | 4.8 | 11.3 | 0.00 | 0.00 | 0.00 | 51 | 1016.9 |
| 20260906013017 | 21 | 190 | 6.4 | 11.3 | 0.00 | 0.00 | 0.00 | 52 | 1016.8 |
| 20260906012017 | 21 | 201 | 4.8 | 9.7 | 0.00 | 0.00 | 0.00 | 51 | 1016.6 |
| 20260906011018 | 21 | 199 | 8.0 | 14.5 | 0.00 | 0.00 | 0.00 | 49 | 1016.6 |
| 20260906010018 | 22 | 192 | 9.7 | 14.5 | 0.00 | 0.00 | 0.00 | 48 | 1016.4 |
| 20260906005017 | 22 | 183 | 8.0 | 14.5 | 0.00 | 0.00 | 0.00 | 47 | 1016.4 |
| 20260906004018 | 22 | 187 | 6.4 | 11.3 | 0.00 | 0.00 | 0.00 | 46 | 1016.4 |
| 20260906003018 | 22 | 189 | 8.0 | 14.5 | 0.00 | 0.00 | 0.00 | 46 | 1016.4 |
| 20260906002019 | 22 | 192 | 6.4 | 12.9 | 0.00 | 0.00 | 0.00 | 46 | 1016.4 |
| 20260906001016 | 22 | 183 | 8.0 | 14.5 | 0.00 | 0.00 | 0.00 | 46 | 1016.4 |
| 20260906000036 | 22 | 189 | 6.4 | 12.9 | 0.00 | 0.00 | 0.00 | 46 | 1016.4 |
| 20260905235016 | 22 | 178 | 6.4 | 12.9 | 0.00 | 0.00 | 0.00 | 46 | 1016.5 |
| 20260905234016 | 22 | 191 | 6.4 | 12.9 | 0.00 | 0.00 | 0.00 | 47 | 1016.6 |
| 20260905233016 | 22 | 189 | 6.4 | 16.1 | 0.00 | 0.00 | 0.00 | 47 | 1016.6 |
| 20260905232016 | 22 | 183 | 4.8 | 11.3 | 0.00 | 0.00 | 0.00 | 48 | 1016.6 |